sensor_id;sensor_type;location;lat;lon;timestamp;P1;durP1;ratioP1;P2;durP2;ratioP2
30466;SDS011;17258;52.560;13.046;2023-07-20T00:03:12;1.27;;;1.03;;
30466;SDS011;17258;52.560;13.046;2023-07-20T00:13:18;1.13;;;1.10;;
30466;SDS011;17258;52.560;13.046;2023-07-20T00:23:21;5.82;;;1.83;;
30466;SDS011;17258;52.560;13.046;2023-07-20T00:33:22;1.52;;;1.42;;
30466;SDS011;17258;52.560;13.046;2023-07-20T00:43:23;1.20;;;1.13;;
30466;SDS011;17258;52.560;13.046;2023-07-20T00:53:23;1.43;;;1.33;;
30466;SDS011;17258;52.560;13.046;2023-07-20T01:03:24;1.93;;;1.73;;
30466;SDS011;17258;52.560;13.046;2023-07-20T01:13:25;5.90;;;2.30;;
30466;SDS011;17258;52.560;13.046;2023-07-20T01:23:38;2.17;;;1.92;;
30466;SDS011;17258;52.560;13.046;2023-07-20T01:33:54;1.58;;;1.48;;
30466;SDS011;17258;52.560;13.046;2023-07-20T01:43:58;2.35;;;1.42;;
30466;SDS011;17258;52.560;13.046;2023-07-20T01:54:02;1.50;;;1.40;;
30466;SDS011;17258;52.560;13.046;2023-07-20T02:04:02;1.97;;;1.87;;
30466;SDS011;17258;52.560;13.046;2023-07-20T02:14:03;2.00;;;1.73;;
30466;SDS011;17258;52.560;13.046;2023-07-20T02:24:04;1.93;;;1.50;;
30466;SDS011;17258;52.560;13.046;2023-07-20T02:34:05;4.43;;;2.05;;
30466;SDS011;17258;52.560;13.046;2023-07-20T02:44:06;3.08;;;2.67;;
30466;SDS011;17258;52.560;13.046;2023-07-20T02:54:07;3.83;;;2.73;;
30466;SDS011;17258;52.560;13.046;2023-07-20T03:04:08;3.15;;;2.92;;
30466;SDS011;17258;52.560;13.046;2023-07-20T03:14:11;3.15;;;2.70;;
30466;SDS011;17258;52.560;13.046;2023-07-20T03:24:12;2.83;;;2.63;;
30466;SDS011;17258;52.560;13.046;2023-07-20T03:34:13;2.20;;;2.07;;
30466;SDS011;17258;52.560;13.046;2023-07-20T03:44:14;2.57;;;2.37;;
30466;SDS011;17258;52.560;13.046;2023-07-20T03:54:14;2.67;;;2.43;;
30466;SDS011;17258;52.560;13.046;2023-07-20T04:04:15;7.23;;;2.67;;
30466;SDS011;17258;52.560;13.046;2023-07-20T04:14:16;9.23;;;2.45;;
30466;SDS011;17258;52.560;13.046;2023-07-20T04:24:17;2.97;;;2.77;;
30466;SDS011;17258;52.560;13.046;2023-07-20T04:34:17;2.00;;;1.90;;
30466;SDS011;17258;52.560;13.046;2023-07-20T04:44:18;2.40;;;2.20;;
30466;SDS011;17258;52.560;13.046;2023-07-20T04:54:19;2.67;;;2.47;;
30466;SDS011;17258;52.560;13.046;2023-07-20T05:04:19;3.03;;;2.83;;
30466;SDS011;17258;52.560;13.046;2023-07-20T05:14:20;3.53;;;3.17;;
30466;SDS011;17258;52.560;13.046;2023-07-20T05:24:21;3.27;;;2.97;;
30466;SDS011;17258;52.560;13.046;2023-07-20T05:34:21;3.17;;;2.97;;
30466;SDS011;17258;52.560;13.046;2023-07-20T05:44:22;2.60;;;2.40;;
30466;SDS011;17258;52.560;13.046;2023-07-20T05:54:25;2.80;;;2.47;;
30466;SDS011;17258;52.560;13.046;2023-07-20T06:04:26;1.65;;;1.55;;
30466;SDS011;17258;52.560;13.046;2023-07-20T06:14:27;1.98;;;1.77;;
30466;SDS011;17258;52.560;13.046;2023-07-20T06:24:27;1.60;;;1.50;;
30466;SDS011;17258;52.560;13.046;2023-07-20T06:34:28;1.30;;;1.20;;
30466;SDS011;17258;52.560;13.046;2023-07-20T06:44:29;0.80;;;0.80;;
30466;SDS011;17258;52.560;13.046;2023-07-20T06:54:30;0.87;;;0.87;;
30466;SDS011;17258;52.560;13.046;2023-07-20T07:04:31;1.23;;;1.13;;
30466;SDS011;17258;52.560;13.046;2023-07-20T07:14:31;1.05;;;0.85;;
30466;SDS011;17258;52.560;13.046;2023-07-20T07:24:32;0.60;;;0.60;;
30466;SDS011;17258;52.560;13.046;2023-07-20T07:34:36;1.20;;;0.50;;
30466;SDS011;17258;52.560;13.046;2023-07-20T07:44:37;0.65;;;0.60;;
30466;SDS011;17258;52.560;13.046;2023-07-20T07:54:37;0.57;;;0.57;;
30466;SDS011;17258;52.560;13.046;2023-07-20T08:04:38;0.50;;;0.50;;
30466;SDS011;17258;52.560;13.046;2023-07-20T08:14:39;2.45;;;2.25;;
30466;SDS011;17258;52.560;13.046;2023-07-20T08:24:40;0.70;;;0.70;;
30466;SDS011;17258;52.560;13.046;2023-07-20T08:34:41;0.40;;;0.40;;
30466;SDS011;17258;52.560;13.046;2023-07-20T08:44:42;0.47;;;0.47;;
30466;SDS011;17258;52.560;13.046;2023-07-20T08:54:45;9.38;;;8.98;;
30466;SDS011;17258;52.560;13.046;2023-07-20T09:04:46;0.67;;;0.63;;
30466;SDS011;17258;52.560;13.046;2023-07-20T09:14:46;0.60;;;0.60;;
30466;SDS011;17258;52.560;13.046;2023-07-20T09:24:47;1.43;;;1.40;;
30466;SDS011;17258;52.560;13.046;2023-07-20T09:34:51;7.50;;;7.20;;
30466;SDS011;17258;52.560;13.046;2023-07-20T09:44:52;1.73;;;1.63;;
30466;SDS011;17258;52.560;13.046;2023-07-20T09:54:53;1.50;;;0.65;;
30466;SDS011;17258;52.560;13.046;2023-07-20T10:04:55;0.68;;;0.68;;
30466;SDS011;17258;52.560;13.046;2023-07-20T10:15:09;0.50;;;0.50;;
30466;SDS011;17258;52.560;13.046;2023-07-20T10:25:12;0.65;;;0.60;;
30466;SDS011;17258;52.560;13.046;2023-07-20T10:35:17;0.55;;;0.55;;
30466;SDS011;17258;52.560;13.046;2023-07-20T10:45:18;0.65;;;0.65;;
30466;SDS011;17258;52.560;13.046;2023-07-20T10:55:19;0.87;;;0.43;;
30466;SDS011;17258;52.560;13.046;2023-07-20T11:05:35;0.45;;;0.45;;
30466;SDS011;17258;52.560;13.046;2023-07-20T11:15:46;7.50;;;7.20;;
30466;SDS011;17258;52.560;13.046;2023-07-20T11:25:56;5.88;;;5.63;;
30466;SDS011;17258;52.560;13.046;2023-07-20T11:35:57;6.70;;;6.40;;
30466;SDS011;17258;52.560;13.046;2023-07-20T11:45:57;10.00;;;9.60;;
30466;SDS011;17258;52.560;13.046;2023-07-20T11:55:59;10.80;;;10.30;;
30466;SDS011;17258;52.560;13.046;2023-07-20T12:06:06;11.53;;;11.03;;
30466;SDS011;17258;52.560;13.046;2023-07-20T12:16:15;12.85;;;10.68;;
30466;SDS011;17258;52.560;13.046;2023-07-20T12:26:16;10.10;;;9.70;;
30466;SDS011;17258;52.560;13.046;2023-07-20T12:36:17;9.40;;;9.00;;
30466;SDS011;17258;52.560;13.046;2023-07-20T12:46:18;11.00;;;10.40;;
30466;SDS011;17258;52.560;13.046;2023-07-20T12:56:19;11.20;;;10.70;;
30466;SDS011;17258;52.560;13.046;2023-07-20T13:06:20;12.33;;;11.73;;
30466;SDS011;17258;52.560;13.046;2023-07-20T13:16:21;12.63;;;12.02;;
30466;SDS011;17258;52.560;13.046;2023-07-20T13:26:22;13.27;;;12.68;;
30466;SDS011;17258;52.560;13.046;2023-07-20T13:36:23;13.27;;;12.30;;
30466;SDS011;17258;52.560;13.046;2023-07-20T13:46:23;12.10;;;11.50;;
30466;SDS011;17258;52.560;13.046;2023-07-20T13:56:24;12.50;;;11.90;;
30466;SDS011;17258;52.560;13.046;2023-07-20T14:06:25;12.60;;;12.00;;
30466;SDS011;17258;52.560;13.046;2023-07-20T14:16:25;12.68;;;12.07;;
30466;SDS011;17258;52.560;13.046;2023-07-20T14:26:26;13.85;;;13.15;;
30466;SDS011;17258;52.560;13.046;2023-07-20T14:36:27;13.77;;;13.07;;
30466;SDS011;17258;52.560;13.046;2023-07-20T14:46:27;14.10;;;13.40;;
30466;SDS011;17258;52.560;13.046;2023-07-20T14:56:28;14.03;;;13.33;;
30466;SDS011;17258;52.560;13.046;2023-07-20T15:06:29;13.73;;;12.93;;
30466;SDS011;17258;52.560;13.046;2023-07-20T15:16:30;13.10;;;12.45;;
30466;SDS011;17258;52.560;13.046;2023-07-20T15:26:30;14.60;;;13.80;;
30466;SDS011;17258;52.560;13.046;2023-07-20T15:36:33;14.20;;;13.40;;
30466;SDS011;17258;52.560;13.046;2023-07-20T15:56:41;7.23;;;6.90;;
30466;SDS011;17258;52.560;13.046;2023-07-20T16:06:42;10.48;;;9.98;;
30466;SDS011;17258;52.560;13.046;2023-07-20T16:16:43;14.35;;;13.40;;
30466;SDS011;17258;52.560;13.046;2023-07-20T16:26:44;13.73;;;13.02;;
30466;SDS011;17258;52.560;13.046;2023-07-20T16:36:44;14.30;;;13.23;;
30466;SDS011;17258;52.560;13.046;2023-07-20T16:46:45;15.47;;;13.10;;
30466;SDS011;17258;52.560;13.046;2023-07-20T16:56:46;14.67;;;13.40;;
30466;SDS011;17258;52.560;13.046;2023-07-20T17:06:46;14.03;;;13.33;;
30466;SDS011;17258;52.560;13.046;2023-07-20T17:16:47;13.57;;;12.87;;
30466;SDS011;17258;52.560;13.046;2023-07-20T17:26:48;14.05;;;13.35;;
30466;SDS011;17258;52.560;13.046;2023-07-20T17:36:49;11.27;;;10.77;;
30466;SDS011;17258;52.560;13.046;2023-07-20T17:46:50;6.28;;;5.97;;
30466;SDS011;17258;52.560;13.046;2023-07-20T17:56:51;8.00;;;7.57;;
30466;SDS011;17258;52.560;13.046;2023-07-20T18:06:51;3.90;;;3.70;;
30466;SDS011;17258;52.560;13.046;2023-07-20T18:16:52;1.57;;;0.70;;
30466;SDS011;17258;52.560;13.046;2023-07-20T18:26:52;0.40;;;0.40;;
30466;SDS011;17258;52.560;13.046;2023-07-20T18:36:53;1.00;;;0.67;;
30466;SDS011;17258;52.560;13.046;2023-07-20T18:46:54;0.67;;;0.60;;
30466;SDS011;17258;52.560;13.046;2023-07-20T18:56:55;6.40;;;5.80;;
30466;SDS011;17258;52.560;13.046;2023-07-20T19:06:57;1.10;;;1.00;;
30466;SDS011;17258;52.560;13.046;2023-07-20T19:16:57;5.97;;;2.13;;
30466;SDS011;17258;52.560;13.046;2023-07-20T19:26:58;0.80;;;0.80;;
30466;SDS011;17258;52.560;13.046;2023-07-20T19:36:59;1.10;;;0.88;;
30466;SDS011;17258;52.560;13.046;2023-07-20T19:47:01;0.60;;;0.60;;
30466;SDS011;17258;52.560;13.046;2023-07-20T19:57:02;0.85;;;0.80;;
30466;SDS011;17258;52.560;13.046;2023-07-20T20:07:03;3.38;;;1.83;;
30466;SDS011;17258;52.560;13.046;2023-07-20T20:17:09;1.27;;;1.17;;
30466;SDS011;17258;52.560;13.046;2023-07-20T20:27:10;1.98;;;1.08;;
30466;SDS011;17258;52.560;13.046;2023-07-20T20:37:11;1.13;;;1.02;;
30466;SDS011;17258;52.560;13.046;2023-07-20T20:47:11;1.90;;;1.70;;
30466;SDS011;17258;52.560;13.046;2023-07-20T20:57:12;2.43;;;1.60;;
30466;SDS011;17258;52.560;13.046;2023-07-20T21:07:14;1.23;;;1.13;;
30466;SDS011;17258;52.560;13.046;2023-07-20T21:17:15;1.17;;;1.05;;
30466;SDS011;17258;52.560;13.046;2023-07-20T21:27:16;2.20;;;1.97;;
30466;SDS011;17258;52.560;13.046;2023-07-20T21:37:16;1.93;;;1.27;;
30466;SDS011;17258;52.560;13.046;2023-07-20T21:47:17;1.50;;;1.40;;
30466;SDS011;17258;52.560;13.046;2023-07-20T21:57:18;0.90;;;0.90;;
30466;SDS011;17258;52.560;13.046;2023-07-20T22:07:20;1.75;;;0.90;;
30466;SDS011;17258;52.560;13.046;2023-07-20T22:17:20;1.50;;;0.60;;
30466;SDS011;17258;52.560;13.046;2023-07-20T22:27:21;1.30;;;1.20;;
30466;SDS011;17258;52.560;13.046;2023-07-20T22:37:22;0.90;;;0.90;;
30466;SDS011;17258;52.560;13.046;2023-07-20T22:47:22;0.90;;;0.90;;
30466;SDS011;17258;52.560;13.046;2023-07-20T22:57:23;1.37;;;0.97;;
30466;SDS011;17258;52.560;13.046;2023-07-20T23:07:24;0.82;;;0.73;;
30466;SDS011;17258;52.560;13.046;2023-07-20T23:17:24;1.50;;;0.73;;
30466;SDS011;17258;52.560;13.046;2023-07-20T23:27:25;1.57;;;1.03;;
30466;SDS011;17258;52.560;13.046;2023-07-20T23:37:26;1.10;;;1.00;;
30466;SDS011;17258;52.560;13.046;2023-07-20T23:47:26;1.70;;;1.43;;
30466;SDS011;17258;52.560;13.046;2023-07-20T23:57:27;3.13;;;1.83;;
